Al Diriyah — HZAD — position and weather

sailwx.info

Track history (hours):
 
Tides and Currents Weather Stations Pressure Air Temp Water Temp Dewpoint Dewpoint Depression Visibility Wind Speed Wind Dir Waves Ship Positions

Al Diriyah

Last reported at 2014-Aug-21 21:24 UTC. Time now 2014-Aug-21 22:00 UTC.
Position N 38°55' E 001°26'.

Length 80 m; draft 5 m.

Type: Pleasure craft. MMSI: 403005000.

Date/timePositionNaut miles runAvg speedWind from/ knotsBaromVisibWave heightAir tempDewpointWater temp
2014-Aug-21 21:24N 38°55' E 001°26'0 0.0
2014-Aug-21 20:30N 38°55' E 001°26'0 0.0
2014-Aug-21 09:32N 38°55' E 001°26'0 0.0
2014-Aug-21 04:18N 38°55' E 001°26'0 0.0
2014-Aug-21 01:08N 38°55' E 001°26'0 0.0
2014-Aug-20 23:33N 38°55' E 001°26'0 0.0
2014-Aug-20 20:32N 38°55' E 001°26'1 0.1
2014-Aug-20 07:06N 38°54' E 001°27'1 1.6
2014-Aug-20 06:29N 38°55' E 001°26'0 0.0
2014-Aug-20 04:12N 38°55' E 001°26'0 0.0
2014-Aug-20 01:32N 38°55' E 001°26'0 0.0
2014-Aug-20 00:33N 38°55' E 001°26'0 0.0
2014-Aug-19 23:33N 38°55' E 001°26'0 0.0
2014-Aug-19 22:28N 38°55' E 001°26'0 0.0
2014-Aug-19 21:11N 38°55' E 001°26'0 0.1
2014-Aug-19 20:26N 38°55' E 001°26'9 9.8
2014-Aug-19 19:28N 38°45' E 001°25'1 0.8
2014-Aug-19 18:24N 38°45' E 001°25'0 0.0
2014-Aug-19 17:20N 38°45' E 001°25'10 1.4
2014-Aug-19 10:14N 38°55' E 001°26'0 0.0
2014-Aug-19 09:13N 38°55' E 001°26'0 0.0
2014-Aug-19 07:20N 38°55' E 001°26'0 0.0
2014-Aug-19 05:33N 38°55' E 001°26'0 0.0
2014-Aug-19 04:28N 38°55' E 001°26'0 0.0
2014-Aug-19 02:29N 38°55' E 001°26'0 0.0
2014-Aug-19 00:25N 38°55' E 001°26'0 0.1
2014-Aug-18 20:29N 38°54' E 001°27'9 8.8
2014-Aug-18 19:30N 38°46' E 001°26'0 0.0
2014-Aug-18 18:31N 38°46' E 001°26'0 0.0
2014-Aug-18 12:11N 38°46' E 001°26'  
Track history (hours):
 
Tides and Currents Weather Stations Pressure Air Temp Water Temp Dewpoint Dewpoint Depression Visibility Wind Speed Wind Dir Waves Ship Positions

Al Diriyah

Last reported at 2014-Aug-21 21:24 UTC. Time now 2014-Aug-21 22:00 UTC.
Position N 38°55' E 001°26'.

Length 80 m; draft 5 m.

Type: Pleasure craft. MMSI: 403005000.

Date/timePositionNaut miles runAvg speedWind from/ knotsBaromVisibWave heightAir tempDewpointWater temp
2014-Aug-21 21:24N 38°55' E 001°26'0 0.0
2014-Aug-21 20:30N 38°55' E 001°26'0 0.0
2014-Aug-21 09:32N 38°55' E 001°26'0 0.0
2014-Aug-21 04:18N 38°55' E 001°26'0 0.0
2014-Aug-21 01:08N 38°55' E 001°26'0 0.0
2014-Aug-20 23:33N 38°55' E 001°26'0 0.0
2014-Aug-20 20:32N 38°55' E 001°26'1 0.1
2014-Aug-20 07:06N 38°54' E 001°27'1 1.6
2014-Aug-20 06:29N 38°55' E 001°26'0 0.0
2014-Aug-20 04:12N 38°55' E 001°26'0 0.0
2014-Aug-20 01:32N 38°55' E 001°26'0 0.0
2014-Aug-20 00:33N 38°55' E 001°26'0 0.0
2014-Aug-19 23:33N 38°55' E 001°26'0 0.0
2014-Aug-19 22:28N 38°55' E 001°26'0 0.0
2014-Aug-19 21:11N 38°55' E 001°26'0 0.1
2014-Aug-19 20:26N 38°55' E 001°26'9 9.8
2014-Aug-19 19:28N 38°45' E 001°25'1 0.8
2014-Aug-19 18:24N 38°45' E 001°25'0 0.0
2014-Aug-19 17:20N 38°45' E 001°25'10 1.4
2014-Aug-19 10:14N 38°55' E 001°26'0 0.0
2014-Aug-19 09:13N 38°55' E 001°26'0 0.0
2014-Aug-19 07:20N 38°55' E 001°26'0 0.0
2014-Aug-19 05:33N 38°55' E 001°26'0 0.0
2014-Aug-19 04:28N 38°55' E 001°26'0 0.0
2014-Aug-19 02:29N 38°55' E 001°26'0 0.0
2014-Aug-19 00:25N 38°55' E 001°26'0 0.1
2014-Aug-18 20:29N 38°54' E 001°27'9 8.8
2014-Aug-18 19:30N 38°46' E 001°26'0 0.0
2014-Aug-18 18:31N 38°46' E 001°26'0 0.0
2014-Aug-18 12:11N 38°46' E 001°26'  

Dump ship's entire track history